METAR Reports LIMOGES - BRIVE - BERGERAC - ANGOULEME - CLERMOND-FERRAND - AURILLAC

 

LFBL - Aeroport de Limoges-Bellegarde
Distance from station: NE 45km
Mise à jour: 01/10/2022 17:00
Light drizzle, Brouillard, Couvert
Light drizzle, Brouillard, Couvert
 Wind from OSO
Vent: OSO 19 km/h
Température: 17°C
Pt de rosée: 17°C
Humidité: 100%
Baromètre: 1021 hPa
Résumé: Light drizzle, Brouillard
Clouds: Couvert
Visibility: 5 km
Cloud details: Couvert 122 m
2022/10/01 15:00 LFBL 011500Z AUTO 25010KT 220V280 5000 -DZ BR OVC004 17/17 Q1021 TEMPO 1100 DZRA
LFSL - Aeroport de Brive-Vallee de la Dordogne
Distance from station: S 40km
Mise à jour: 01/10/2022 17:00
Pluie légère, Drizzle, Couvert
Pluie légère, Drizzle, Couvert
 Wind from OSO
Vent: OSO 9 km/h
Température: 17°C
Pt de rosée: 17°C
Humidité: 100%
Baromètre: 1023 hPa
Résumé: Pluie légère, Drizzle
Clouds: Couvert
Visibility: 10 km
Cloud details: Couvert 183 m
2022/10/01 15:00 LFSL 011500Z AUTO 24005KT 160V300 9999 -RADZ OVC006 17/17 Q1023 TEMPO 2000 DZRA OVC004
 
LFBE - Aeroport de Bergerac-Dordogne-Perigord
Distance from station: SO 150km
Mise à jour: 01/10/2022 17:00
Couvert
Couvert
 Wind from OSO
Vent: OSO 26 km/h
Température: 20°C
Pt de rosée: 17°C
Humidité: 83%
Baromètre: 1023 hPa
Clouds: Couvert
Visibility: 10 km
Cloud details: Nuageux 549 m
Couvert 823 m
2022/10/01 15:00 LFBE 011500Z AUTO 25014KT 210V280 9999 BKN018 OVC027 20/17 Q1023 TEMPO 2000 DZRA OVC008
LFBU - Aeroport international Angouleme-Cognac
Distance from station: SSO 120km
Mise à jour: 01/10/2022 17:00
Couvert
Couvert
 Wind from OSO
Vent: OSO 19 km/h
Température: 19°C
Pt de rosée: 18°C
Humidité: 94%
Baromètre: 1022 hPa
Clouds: Couvert
Visibility: 10 km
Cloud details: Couvert 213 m
2022/10/01 15:00 LFBU 011500Z AUTO 24010KT 210V270 9999 OVC007 19/18 Q1022 TEMPO 2000 DZ OVC003
 
LFLC - Aeroport de Clermont-Ferrand Auvergne
Distance from station: E 200km
Mise à jour: 01/10/2022 17:00
Clair
Clair
 Wind from O
Vent: O 37 km/h
Température: 21°C
Pt de rosée: 14°C
Humidité: 64%
Baromètre: 1020 hPa
Résumé: Clair
Visibility: greater than 10 km
2022/10/01 15:00 LFLC 011500Z AUTO 26020KT CAVOK 21/14 Q1020 BECMG 26010KT
LFLW - Aeroport Aurillac
Distance from station: SE 120km
Mise à jour: 01/10/2022 17:00
Light drizzle, Brouillard, Couvert
Light drizzle, Brouillard, Couvert
 Wind from SO
Vent: SO 7 km/h
Température: 14°C
Pt de rosée: 13°C
Humidité: 94%
Baromètre: 1024 hPa
Résumé: Light drizzle, Brouillard
Clouds: Couvert
Visibility: 4 km
Cloud details: Couvert 122 m
2022/10/01 15:00 LFLW 011500Z AUTO 23004KT 180V260 3800 -DZ BR OVC004 14/13 Q1024 TEMPO 0600 FG VV///